Time;durP1;ratioP1;P1;durP2;ratioP2;P2;SDS_P1;SDS_P2;PMS_P1;PMS_P2;Temp;Humidity;BMP_temperature;BMP_pressure;BME280_temperature;BME280_humidity;BME280_pressure;Samples;Min_cycle;Max_cycle;Signal;HPM_P1;HPM_P2
2024/01/15 00:00:43;;;;;;;6.93;4.10;;;;;;;;;;5104390;28;20080;-77
2024/01/15 00:03:09;;;;;;;8.63;4.07;;;;;;;;;;5098144;28;20115;-77
2024/01/15 00:05:35;;;;;;;9.13;4.28;;;;;;;;;;5106203;28;20107;-78
2024/01/15 00:08:02;;;;;;;8.15;3.65;;;;;;;;;;5096794;28;20031;-79
2024/01/15 00:10:34;;;;;;;8.77;4.22;;;;;;;;;;5078998;28;20355;-79
2024/01/15 00:13:00;;;;;;;8.32;4.32;;;;;;;;;;5073137;28;20020;-78
2024/01/15 00:15:28;;;;;;;7.50;4.63;;;;;;;;;;5103202;28;20378;-78
2024/01/15 00:17:54;;;;;;;8.43;4.65;;;;;;;;;;5099423;28;20012;-80
2024/01/15 00:20:20;;;;;;;10.02;4.20;;;;;;;;;;5110160;28;20024;-80
2024/01/15 00:22:46;;;;;;;8.05;4.15;;;;;;;;;;5086496;28;20028;-77
2024/01/15 00:25:13;;;;;;;9.82;4.70;;;;;;;;;;5098966;28;20054;-79
2024/01/15 00:27:39;;;;;;;11.93;6.00;;;;;;;;;;5099491;28;20016;-78
2024/01/15 00:30:05;;;;;;;10.45;5.07;;;;;;;;;;5102711;28;20050;-78
2024/01/15 00:32:31;;;;;;;12.02;5.15;;;;;;;;;;5101136;28;20081;-79
2024/01/15 00:34:57;;;;;;;10.35;5.10;;;;;;;;;;5098315;28;20032;-79
2024/01/15 00:37:23;;;;;;;10.27;5.15;;;;;;;;;;5098087;28;20031;-77
2024/01/15 00:39:50;;;;;;;10.40;4.68;;;;;;;;;;5078869;28;20418;-79
2024/01/15 00:42:16;;;;;;;9.57;5.15;;;;;;;;;;5080426;28;20031;-78
2024/01/15 00:44:43;;;;;;;10.15;5.43;;;;;;;;;;5102629;28;20031;-78
2024/01/15 00:47:09;;;;;;;8.55;5.18;;;;;;;;;;5104047;28;20060;-78
2024/01/15 00:49:35;;;;;;;11.52;5.43;;;;;;;;;;5100257;28;20016;-77
2024/01/15 00:52:01;;;;;;;9.85;5.00;;;;;;;;;;5086746;28;20016;-77
2024/01/15 00:54:30;;;;;;;11.60;5.10;;;;;;;;;;5101418;28;20024;-76
2024/01/15 00:56:59;;;;;;;12.88;5.93;;;;;;;;;;5101413;28;20030;-77
2024/01/15 00:59:25;;;;;;;9.20;5.25;;;;;;;;;;5099572;28;20040;-77
2024/01/15 01:01:51;;;;;;;11.07;5.85;;;;;;;;;;5079839;28;20111;-77
2024/01/15 01:04:18;;;;;;;11.40;5.75;;;;;;;;;;5079250;28;20028;-78
2024/01/15 01:06:44;;;;;;;17.08;6.68;;;;;;;;;;5097398;28;20518;-77
2024/01/15 01:09:10;;;;;;;15.38;7.70;;;;;;;;;;5096844;28;20024;-79
2024/01/15 01:11:36;;;;;;;15.05;7.30;;;;;;;;;;5078510;28;20106;-78
2024/01/15 01:14:03;;;;;;;16.30;8.02;;;;;;;;;;5101157;28;20089;-80
2024/01/15 01:16:31;;;;;;;17.05;8.75;;;;;;;;;;5099542;28;20016;-77
2024/01/15 01:18:57;;;;;;;14.13;7.50;;;;;;;;;;5078505;28;20090;-76
2024/01/15 01:21:23;;;;;;;16.85;8.05;;;;;;;;;;5097447;28;20439;-79
2024/01/15 01:23:50;;;;;;;16.90;8.32;;;;;;;;;;5097093;28;20027;-78
2024/01/15 01:26:16;;;;;;;20.90;8.40;;;;;;;;;;5081979;28;20032;-78
2024/01/15 01:28:42;;;;;;;18.90;8.43;;;;;;;;;;5106759;28;20102;-79
2024/01/15 01:31:11;;;;;;;21.10;8.82;;;;;;;;;;5097401;28;20032;-79
2024/01/15 01:33:39;;;;;;;18.63;8.52;;;;;;;;;;5096502;28;20469;-77
2024/01/15 01:36:09;;;;;;;20.65;9.02;;;;;;;;;;5096478;28;20028;-78
2024/01/15 01:38:35;;;;;;;37.45;12.00;;;;;;;;;;5108315;28;20035;-80
2024/01/15 01:41:02;;;;;;;22.20;9.48;;;;;;;;;;5093575;28;20039;-77
2024/01/15 01:43:28;;;;;;;22.58;8.82;;;;;;;;;;5106742;28;20082;-75
2024/01/15 01:45:56;;;;;;;20.98;8.95;;;;;;;;;;5098787;28;20524;-77
2024/01/15 01:48:22;;;;;;;24.17;8.93;;;;;;;;;;5100593;28;20032;-78
2024/01/15 01:50:48;;;;;;;31.27;10.35;;;;;;;;;;5095776;28;20367;-76
2024/01/15 01:53:15;;;;;;;34.03;10.05;;;;;;;;;;5080143;28;20087;-76
2024/01/15 01:55:41;;;;;;;22.08;8.43;;;;;;;;;;5094853;28;20028;-77
2024/01/15 01:58:08;;;;;;;31.13;9.38;;;;;;;;;;5094506;28;20020;-79
2024/01/15 02:00:34;;;;;;;34.88;11.40;;;;;;;;;;5095664;28;20083;-77
2024/01/15 02:03:00;;;;;;;19.30;8.95;;;;;;;;;;5093718;28;20024;-77
2024/01/15 02:05:27;;;;;;;13.45;7.22;;;;;;;;;;5099086;28;20024;-78
2024/01/15 02:07:54;;;;;;;14.05;7.60;;;;;;;;;;5095721;28;20086;-79
2024/01/15 02:10:20;;;;;;;11.93;6.75;;;;;;;;;;5104679;28;20489;-79
2024/01/15 02:12:48;;;;;;;13.20;6.88;;;;;;;;;;5079075;28;20034;-77
2024/01/15 02:15:14;;;;;;;13.55;6.32;;;;;;;;;;5077723;28;20192;-78
2024/01/15 02:18:00;;;;;;;12.27;6.50;;;;;;;;;;5098416;28;20023;-77
2024/01/15 02:20:27;;;;;;;13.20;7.05;;;;;;;;;;5112899;27;20024;-78
2024/01/15 02:22:53;;;;;;;15.80;7.00;;;;;;;;;;5076682;28;20394;-77
2024/01/15 02:25:19;;;;;;;13.63;7.22;;;;;;;;;;5095322;28;20142;-78
2024/01/15 02:27:46;;;;;;;16.15;7.80;;;;;;;;;;5096862;28;20425;-80
2024/01/15 02:30:13;;;;;;;13.20;6.53;;;;;;;;;;5094782;28;20024;-78
2024/01/15 02:32:39;;;;;;;14.38;6.95;;;;;;;;;;5094986;28;20530;-78
2024/01/15 02:35:05;;;;;;;17.13;6.40;;;;;;;;;;5099438;28;20425;-77
2024/01/15 02:37:31;;;;;;;12.35;6.72;;;;;;;;;;5096078;28;20039;-77
2024/01/15 02:39:57;;;;;;;13.45;6.18;;;;;;;;;;5095019;28;20028;-74
2024/01/15 02:42:23;;;;;;;15.07;6.55;;;;;;;;;;5096545;28;20375;-78
2024/01/15 02:44:50;;;;;;;12.23;6.13;;;;;;;;;;5104185;28;20027;-77
2024/01/15 02:47:16;;;;;;;12.43;6.35;;;;;;;;;;5082373;28;20028;-76
2024/01/15 02:49:42;;;;;;;12.32;5.78;;;;;;;;;;5103328;28;20027;-77
2024/01/15 02:52:08;;;;;;;15.10;6.28;;;;;;;;;;5111295;28;20438;-77
2024/01/15 02:54:34;;;;;;;11.68;5.65;;;;;;;;;;5119181;28;20009;-80
2024/01/15 02:57:00;;;;;;;12.45;5.38;;;;;;;;;;5114563;28;20044;-78
2024/01/15 02:59:26;;;;;;;11.80;5.72;;;;;;;;;;5096049;28;20028;-82
2024/01/15 03:01:52;;;;;;;12.15;5.85;;;;;;;;;;5114338;28;20021;-78
2024/01/15 03:04:18;;;;;;;11.25;5.10;;;;;;;;;;5101218;28;20020;-79
2024/01/15 03:06:44;;;;;;;13.75;6.47;;;;;;;;;;5077091;28;20405;-79
2024/01/15 03:09:10;;;;;;;13.23;6.07;;;;;;;;;;5076800;28;20035;-78
2024/01/15 03:11:40;;;;;;;10.27;5.55;;;;;;;;;;5095478;28;20105;-79
2024/01/15 03:14:06;;;;;;;12.25;5.50;;;;;;;;;;5095566;28;20093;-77
2024/01/15 03:16:32;;;;;;;10.23;5.35;;;;;;;;;;5098366;28;20122;-78
2024/01/15 03:18:58;;;;;;;8.82;5.07;;;;;;;;;;5080611;28;20055;-78
2024/01/15 03:21:24;;;;;;;15.13;5.80;;;;;;;;;;5095903;28;20024;-77
2024/01/15 03:23:50;;;;;;;11.38;5.13;;;;;;;;;;5105579;28;20069;-78
2024/01/15 03:26:17;;;;;;;11.60;5.40;;;;;;;;;;5093924;28;20023;-79
2024/01/15 03:28:43;;;;;;;12.20;5.47;;;;;;;;;;5093391;28;20035;-78
2024/01/15 03:31:09;;;;;;;12.18;5.95;;;;;;;;;;5094187;28;20024;-79
2024/01/15 03:33:35;;;;;;;12.10;5.78;;;;;;;;;;5094604;28;20024;-77
2024/01/15 03:36:01;;;;;;;12.43;5.57;;;;;;;;;;5102727;28;20088;-78
2024/01/15 03:38:30;;;;;;;12.07;5.22;;;;;;;;;;5112428;28;20020;-80
2024/01/15 03:40:56;;;;;;;14.57;6.35;;;;;;;;;;5096314;28;20043;-77
2024/01/15 03:43:22;;;;;;;12.27;5.78;;;;;;;;;;5096665;28;20367;-77
2024/01/15 03:45:48;;;;;;;10.75;5.75;;;;;;;;;;5098450;28;20031;-77
2024/01/15 03:48:14;;;;;;;9.57;5.05;;;;;;;;;;5110514;28;20024;-78
2024/01/15 03:50:40;;;;;;;9.30;4.72;;;;;;;;;;5097972;28;20020;-77
2024/01/15 03:53:06;;;;;;;11.38;5.10;;;;;;;;;;5108157;28;20027;-78
2024/01/15 03:55:33;;;;;;;10.52;5.10;;;;;;;;;;5101874;28;20474;-77
2024/01/15 03:57:59;;;;;;;11.00;4.88;;;;;;;;;;5100143;28;20036;-78
2024/01/15 04:00:25;;;;;;;9.07;4.72;;;;;;;;;;5091709;28;20036;-78
2024/01/15 04:02:51;;;;;;;9.68;5.20;;;;;;;;;;5100975;28;20211;-76
2024/01/15 04:05:18;;;;;;;11.63;5.60;;;;;;;;;;5100135;28;20544;-78
2024/01/15 04:07:44;;;;;;;12.18;5.07;;;;;;;;;;5100169;28;20028;-77
2024/01/15 04:10:11;;;;;;;12.18;5.63;;;;;;;;;;5104765;28;20020;-78
2024/01/15 04:12:37;;;;;;;10.07;4.95;;;;;;;;;;5096964;28;20572;-77
2024/01/15 04:15:04;;;;;;;9.40;5.10;;;;;;;;;;5089026;28;20449;-78
2024/01/15 04:17:30;;;;;;;10.52;4.97;;;;;;;;;;5092610;28;20088;-78
2024/01/15 04:19:56;;;;;;;9.90;5.13;;;;;;;;;;5100860;28;20028;-80
2024/01/15 04:22:22;;;;;;;8.77;4.72;;;;;;;;;;5099774;28;20031;-78
2024/01/15 04:24:48;;;;;;;9.30;4.30;;;;;;;;;;5100373;28;20024;-78
2024/01/15 04:27:14;;;;;;;11.15;4.93;;;;;;;;;;5083149;28;20023;-79
2024/01/15 04:29:40;;;;;;;9.02;4.50;;;;;;;;;;5106121;28;20020;-79
2024/01/15 04:32:07;;;;;;;9.32;4.72;;;;;;;;;;5097444;28;20493;-77
2024/01/15 04:34:33;;;;;;;9.93;4.72;;;;;;;;;;5099122;28;20020;-78
2024/01/15 04:36:59;;;;;;;11.98;5.20;;;;;;;;;;5096011;28;20035;-77
2024/01/15 04:39:25;;;;;;;11.15;5.22;;;;;;;;;;5093285;28;20028;-77
2024/01/15 04:41:51;;;;;;;11.30;4.53;;;;;;;;;;5099083;28;20055;-76
2024/01/15 04:44:17;;;;;;;10.73;4.88;;;;;;;;;;5087329;28;20023;-77
2024/01/15 04:46:43;;;;;;;9.05;4.68;;;;;;;;;;5102063;28;20097;-77
2024/01/15 04:49:10;;;;;;;9.63;4.65;;;;;;;;;;5097883;28;20024;-76
2024/01/15 04:51:36;;;;;;;11.52;4.90;;;;;;;;;;5098949;28;20093;-74
2024/01/15 04:54:02;;;;;;;7.68;4.20;;;;;;;;;;5099360;28;20020;-76
2024/01/15 04:56:28;;;;;;;10.18;4.80;;;;;;;;;;5095694;28;20016;-76
2024/01/15 04:58:54;;;;;;;9.05;5.13;;;;;;;;;;5077223;28;20032;-76
2024/01/15 05:01:20;;;;;;;9.85;4.95;;;;;;;;;;5077748;28;20039;-76
2024/01/15 05:03:46;;;;;;;9.02;4.18;;;;;;;;;;5097708;28;20066;-75
2024/01/15 05:06:12;;;;;;;9.00;4.95;;;;;;;;;;5094346;28;20035;-77
2024/01/15 05:08:39;;;;;;;10.30;4.68;;;;;;;;;;5098703;28;20032;-77
2024/01/15 05:11:05;;;;;;;7.63;4.10;;;;;;;;;;5099867;28;20031;-78
2024/01/15 05:13:31;;;;;;;11.77;5.13;;;;;;;;;;5097947;28;20020;-78
2024/01/15 05:15:57;;;;;;;9.40;4.88;;;;;;;;;;5099190;28;20097;-77
2024/01/15 05:18:23;;;;;;;8.55;4.45;;;;;;;;;;5110141;28;20394;-78
2024/01/15 05:20:49;;;;;;;9.07;3.58;;;;;;;;;;5095433;28;20021;-77
2024/01/15 05:23:15;;;;;;;8.02;4.13;;;;;;;;;;5094425;28;20408;-78
2024/01/15 05:25:41;;;;;;;8.50;4.65;;;;;;;;;;5095212;28;20032;-78
2024/01/15 05:28:07;;;;;;;7.40;3.55;;;;;;;;;;5095037;28;20012;-79
2024/01/15 05:30:34;;;;;;;9.07;4.40;;;;;;;;;;5095167;28;20531;-78
2024/01/15 05:33:01;;;;;;;7.78;3.90;;;;;;;;;;5097848;28;20028;-77
2024/01/15 05:35:27;;;;;;;7.75;3.47;;;;;;;;;;5111691;28;20023;-77
2024/01/15 05:37:53;;;;;;;5.75;3.65;;;;;;;;;;5095860;28;20031;-77
2024/01/15 05:40:19;;;;;;;6.07;3.72;;;;;;;;;;5092022;28;20032;-78
2024/01/15 05:42:45;;;;;;;4.32;2.42;;;;;;;;;;5094718;28;20028;-78
2024/01/15 05:45:11;;;;;;;5.63;3.28;;;;;;;;;;5096157;28;20023;-78
2024/01/15 05:47:37;;;;;;;7.63;4.05;;;;;;;;;;5095281;28;20051;-79
2024/01/15 05:50:03;;;;;;;9.15;4.47;;;;;;;;;;5088584;28;20019;-78
2024/01/15 05:52:29;;;;;;;7.03;3.78;;;;;;;;;;5100097;28;20098;-77
2024/01/15 05:54:56;;;;;;;8.40;3.90;;;;;;;;;;5094199;28;20032;-79
2024/01/15 05:57:22;;;;;;;10.52;5.07;;;;;;;;;;5094642;28;20478;-78
2024/01/15 05:59:48;;;;;;;9.43;4.93;;;;;;;;;;5094207;28;20035;-77
2024/01/15 06:02:14;;;;;;;8.93;5.03;;;;;;;;;;5089533;28;20390;-79
2024/01/15 06:04:40;;;;;;;8.48;3.90;;;;;;;;;;5093883;28;20036;-79
2024/01/15 06:07:07;;;;;;;8.40;4.03;;;;;;;;;;5094352;28;20012;-78
2024/01/15 06:09:33;;;;;;;9.75;4.22;;;;;;;;;;5096029;28;20052;-78
2024/01/15 06:11:59;;;;;;;11.85;3.85;;;;;;;;;;5104317;28;20034;-77
2024/01/15 06:14:25;;;;;;;8.95;4.63;;;;;;;;;;5101961;28;20111;-77
2024/01/15 06:16:51;;;;;;;7.80;3.72;;;;;;;;;;5098998;28;20024;-77
2024/01/15 06:19:17;;;;;;;8.07;4.00;;;;;;;;;;5092221;28;20026;-77
2024/01/15 06:21:43;;;;;;;7.45;3.85;;;;;;;;;;5104326;28;20032;-75
2024/01/15 06:24:13;;;;;;;7.22;3.67;;;;;;;;;;5095540;28;20031;-76
2024/01/15 06:26:39;;;;;;;6.72;3.05;;;;;;;;;;5112238;28;20047;-77
2024/01/15 06:29:05;;;;;;;6.57;3.83;;;;;;;;;;5110854;28;20043;-78
2024/01/15 06:31:31;;;;;;;7.45;3.08;;;;;;;;;;5108546;28;20041;-77
2024/01/15 06:33:59;;;;;;;5.90;3.33;;;;;;;;;;5106763;28;20054;-78
2024/01/15 06:36:25;;;;;;;7.72;3.40;;;;;;;;;;5110809;28;20054;-77
2024/01/15 06:38:51;;;;;;;6.20;3.55;;;;;;;;;;5095531;28;20040;-77
2024/01/15 06:41:18;;;;;;;6.35;3.90;;;;;;;;;;5089969;28;20039;-76
2024/01/15 06:43:44;;;;;;;6.55;3.33;;;;;;;;;;5094523;28;20515;-79
2024/01/15 06:46:10;;;;;;;6.90;3.30;;;;;;;;;;5098088;28;20020;-76
2024/01/15 06:48:36;;;;;;;6.60;3.67;;;;;;;;;;5094973;28;20028;-76
2024/01/15 06:51:03;;;;;;;6.68;3.38;;;;;;;;;;5095221;28;20013;-78
2024/01/15 06:53:29;;;;;;;6.80;3.55;;;;;;;;;;5094566;28;20107;-76
2024/01/15 06:55:55;;;;;;;7.30;3.45;;;;;;;;;;5095931;28;20024;-78
2024/01/15 06:58:21;;;;;;;11.02;4.32;;;;;;;;;;5096727;28;20016;-77
2024/01/15 07:00:47;;;;;;;7.88;3.70;;;;;;;;;;5096727;28;20034;-77
2024/01/15 07:03:13;;;;;;;8.80;3.50;;;;;;;;;;5095029;28;20098;-78
2024/01/15 07:05:39;;;;;;;8.27;3.13;;;;;;;;;;5096508;28;20106;-77
2024/01/15 07:08:06;;;;;;;10.05;3.55;;;;;;;;;;5104135;28;20053;-78
2024/01/15 07:10:32;;;;;;;6.63;3.15;;;;;;;;;;5077089;28;20031;-77
2024/01/15 07:12:58;;;;;;;5.18;3.42;;;;;;;;;;5094859;28;20099;-77
2024/01/15 07:15:25;;;;;;;7.70;3.95;;;;;;;;;;5108077;28;20478;-77
2024/01/15 07:17:51;;;;;;;6.57;3.33;;;;;;;;;;5085333;28;20031;-78
2024/01/15 07:20:19;;;;;;;5.82;3.25;;;;;;;;;;5094349;28;20526;-76
2024/01/15 07:22:45;;;;;;;9.07;4.32;;;;;;;;;;5076785;28;20040;-76
2024/01/15 07:25:12;;;;;;;9.25;3.72;;;;;;;;;;5094808;28;20080;-76
2024/01/15 07:27:39;;;;;;;8.52;3.72;;;;;;;;;;5099260;28;20034;-78
2024/01/15 07:30:06;;;;;;;5.65;3.40;;;;;;;;;;5097636;28;20024;-78
2024/01/15 07:32:32;;;;;;;9.38;3.53;;;;;;;;;;5110516;28;20011;-77
2024/01/15 07:34:59;;;;;;;6.45;3.15;;;;;;;;;;5095219;28;20020;-79
2024/01/15 07:37:25;;;;;;;6.43;3.70;;;;;;;;;;5095678;28;20036;-77
2024/01/15 07:39:51;;;;;;;5.90;3.00;;;;;;;;;;5104090;28;20039;-78
2024/01/15 07:42:19;;;;;;;4.88;3.08;;;;;;;;;;5105499;28;20402;-78
2024/01/15 07:44:45;;;;;;;5.55;3.10;;;;;;;;;;5107889;28;20397;-77
2024/01/15 07:47:11;;;;;;;8.88;4.65;;;;;;;;;;5095227;28;20036;-77
2024/01/15 07:49:37;;;;;;;7.32;4.20;;;;;;;;;;5095450;28;20028;-79
2024/01/15 07:52:05;;;;;;;6.30;3.67;;;;;;;;;;5097512;28;20028;-83
2024/01/15 07:54:31;;;;;;;5.72;3.88;;;;;;;;;;5077731;28;20024;-77
2024/01/15 07:57:05;;;;;;;6.63;3.60;;;;;;;;;;5103946;28;20020;-77
2024/01/15 07:59:32;;;;;;;6.97;4.03;;;;;;;;;;5096612;28;20055;-77
2024/01/15 08:01:59;;;;;;;7.70;4.03;;;;;;;;;;5099499;28;20032;-77
2024/01/15 08:04:26;;;;;;;11.05;3.50;;;;;;;;;;5101295;28;20040;-81
2024/01/15 08:06:52;;;;;;;9.23;3.80;;;;;;;;;;5088121;28;20035;-77
2024/01/15 08:09:18;;;;;;;6.90;3.75;;;;;;;;;;5095178;28;20387;-78
2024/01/15 08:11:44;;;;;;;11.55;4.90;;;;;;;;;;5099388;28;20020;-78
2024/01/15 08:14:10;;;;;;;8.50;4.50;;;;;;;;;;5084282;28;20064;-79
2024/01/15 08:16:40;;;;;;;9.05;5.00;;;;;;;;;;5108147;28;20042;-78
2024/01/15 08:19:06;;;;;;;8.70;4.70;;;;;;;;;;5102571;28;20055;-78
2024/01/15 08:21:32;;;;;;;7.40;3.85;;;;;;;;;;5100326;28;20210;-79
2024/01/15 08:24:02;;;;;;;9.13;4.15;;;;;;;;;;5102051;28;20020;-79
2024/01/15 08:26:29;;;;;;;8.88;4.03;;;;;;;;;;5090040;28;20020;-78
2024/01/15 08:28:55;;;;;;;7.85;3.92;;;;;;;;;;5085786;28;20036;-77
2024/01/15 08:31:21;;;;;;;11.45;5.50;;;;;;;;;;5100072;28;20024;-78
2024/01/15 08:33:48;;;;;;;10.25;4.25;;;;;;;;;;5099635;28;20046;-77
2024/01/15 08:36:14;;;;;;;12.65;4.40;;;;;;;;;;5077465;28;20066;-78
2024/01/15 08:38:40;;;;;;;8.02;4.35;;;;;;;;;;5086677;28;20024;-78
2024/01/15 08:41:08;;;;;;;8.95;4.38;;;;;;;;;;5082433;28;20028;-78
2024/01/15 08:43:34;;;;;;;11.73;5.07;;;;;;;;;;5112327;28;20011;-77
2024/01/15 08:46:00;;;;;;;6.45;3.75;;;;;;;;;;5082789;28;20020;-79
2024/01/15 08:48:30;;;;;;;8.68;3.38;;;;;;;;;;5088899;28;20047;-78
2024/01/15 08:50:56;;;;;;;10.93;4.45;;;;;;;;;;5098927;28;20551;-78
2024/01/15 08:53:23;;;;;;;8.68;3.80;;;;;;;;;;5098388;28;20089;-78
2024/01/15 08:55:49;;;;;;;8.23;4.00;;;;;;;;;;5100797;28;20544;-78
2024/01/15 08:58:16;;;;;;;9.07;4.20;;;;;;;;;;5099208;28;20374;-79
2024/01/15 09:00:42;;;;;;;10.43;4.10;;;;;;;;;;5101193;28;20039;-78
2024/01/15 09:03:08;;;;;;;8.93;3.83;;;;;;;;;;5105062;28;20092;-79
2024/01/15 09:05:34;;;;;;;7.60;3.72;;;;;;;;;;5106241;28;20027;-78
2024/01/15 09:08:00;;;;;;;9.60;4.60;;;;;;;;;;5079004;28;20403;-78
2024/01/15 09:10:26;;;;;;;10.75;5.25;;;;;;;;;;5098948;28;20056;-79
2024/01/15 09:12:52;;;;;;;9.63;5.30;;;;;;;;;;5106283;28;20020;-79
2024/01/15 09:15:19;;;;;;;7.25;4.30;;;;;;;;;;5130404;28;20027;-79
2024/01/15 09:17:46;;;;;;;7.75;3.90;;;;;;;;;;5118519;28;20020;-78
2024/01/15 09:20:12;;;;;;;9.10;5.40;;;;;;;;;;5089503;28;20594;-78
2024/01/15 09:22:41;;;;;;;9.32;5.13;;;;;;;;;;5119122;28;20138;-79
2024/01/15 09:25:08;;;;;;;8.02;4.90;;;;;;;;;;5109457;28;20023;-78
2024/01/15 09:27:34;;;;;;;10.70;5.03;;;;;;;;;;5101231;28;20023;-77
2024/01/15 09:30:00;;;;;;;10.23;4.82;;;;;;;;;;5100383;28;20020;-78
2024/01/15 09:32:26;;;;;;;12.25;5.63;;;;;;;;;;5103715;28;20013;-78
2024/01/15 09:34:53;;;;;;;13.02;4.00;;;;;;;;;;5083404;28;20024;-79
2024/01/15 09:37:19;;;;;;;11.65;4.30;;;;;;;;;;5104351;28;20017;-78
2024/01/15 09:39:45;;;;;;;9.05;5.00;;;;;;;;;;5104267;28;20104;-79
2024/01/15 09:42:11;;;;;;;7.03;3.83;;;;;;;;;;5102752;28;20053;-78
2024/01/15 09:44:38;;;;;;;9.75;4.60;;;;;;;;;;5114226;28;20020;-79
2024/01/15 09:47:05;;;;;;;8.25;4.18;;;;;;;;;;5126225;28;20102;-79
2024/01/15 09:49:32;;;;;;;12.35;4.30;;;;;;;;;;5105722;28;20445;-78
2024/01/15 09:51:58;;;;;;;7.95;3.88;;;;;;;;;;5102968;28;20100;-79
2024/01/15 09:54:24;;;;;;;6.93;3.63;;;;;;;;;;5101922;28;20031;-79
2024/01/15 09:56:51;;;;;;;7.68;3.67;;;;;;;;;;5099166;28;20024;-78
2024/01/15 09:59:18;;;;;;;7.03;3.28;;;;;;;;;;5100009;28;20020;-78
2024/01/15 10:01:47;;;;;;;9.63;4.10;;;;;;;;;;5078849;28;20062;-78
2024/01/15 10:04:13;;;;;;;5.85;3.65;;;;;;;;;;5095334;28;20457;-78
2024/01/15 10:06:39;;;;;;;7.63;4.03;;;;;;;;;;5102448;28;20020;-78
2024/01/15 10:09:07;;;;;;;8.95;3.83;;;;;;;;;;5105327;28;20050;-78
2024/01/15 10:11:34;;;;;;;6.88;2.80;;;;;;;;;;5117599;28;20040;-78
2024/01/15 10:14:00;;;;;;;6.28;3.42;;;;;;;;;;5099832;28;20034;-78
2024/01/15 10:16:26;;;;;;;7.18;3.60;;;;;;;;;;5107722;28;20091;-78
2024/01/15 10:18:52;;;;;;;9.07;3.58;;;;;;;;;;5109272;28;20028;-79
2024/01/15 10:21:19;;;;;;;5.72;3.10;;;;;;;;;;5101359;28;20020;-78
2024/01/15 10:23:45;;;;;;;6.05;3.17;;;;;;;;;;5103005;28;20024;-79
2024/01/15 10:26:14;;;;;;;6.65;3.60;;;;;;;;;;5110224;28;20023;-77
2024/01/15 10:28:42;;;;;;;7.13;3.67;;;;;;;;;;5115692;28;20104;-77
2024/01/15 10:31:09;;;;;;;7.90;3.15;;;;;;;;;;5117230;28;20058;-77
2024/01/15 10:33:38;;;;;;;6.10;3.05;;;;;;;;;;5116319;28;20027;-78
2024/01/15 10:36:10;;;;;;;5.80;2.90;;;;;;;;;;5106089;28;20016;-79
2024/01/15 10:38:38;;;;;;;7.18;2.97;;;;;;;;;;5110334;28;20037;-79
2024/01/15 10:41:04;;;;;;;8.48;3.45;;;;;;;;;;5096508;28;20415;-78
2024/01/15 10:43:30;;;;;;;6.47;2.90;;;;;;;;;;5109068;28;20048;-79
2024/01/15 10:45:58;;;;;;;5.15;3.15;;;;;;;;;;5113750;28;20027;-80
2024/01/15 10:48:26;;;;;;;4.32;2.35;;;;;;;;;;5103957;28;20073;-79
2024/01/15 10:50:52;;;;;;;5.20;2.38;;;;;;;;;;5085005;28;20027;-79
2024/01/15 10:53:18;;;;;;;5.57;2.97;;;;;;;;;;5087001;28;20363;-78
2024/01/15 10:55:45;;;;;;;8.80;3.30;;;;;;;;;;5102417;28;20022;-80
2024/01/15 10:58:11;;;;;;;4.78;2.38;;;;;;;;;;5102388;28;20027;-80
2024/01/15 11:00:38;;;;;;;6.55;3.15;;;;;;;;;;5103546;28;20043;-79
2024/01/15 11:03:07;;;;;;;6.05;3.08;;;;;;;;;;5106182;28;20028;-78
2024/01/15 11:05:34;;;;;;;6.53;2.88;;;;;;;;;;5105117;28;20004;-78
2024/01/15 11:08:01;;;;;;;6.43;2.97;;;;;;;;;;5112074;28;20035;-79
2024/01/15 11:10:41;;;;;;;5.38;2.65;;;;;;;;;;5088511;28;20039;-79
2024/01/15 11:13:10;;;;;;;5.88;2.80;;;;;;;;;;5091769;28;20020;-81
2024/01/15 11:15:55;;;;;;;6.05;3.00;;;;;;;;;;5090545;28;20031;-80
2024/01/15 11:18:22;;;;;;;4.85;2.53;;;;;;;;;;5093376;28;20046;-79
2024/01/15 11:21:07;;;;;;;6.20;2.88;;;;;;;;;;5085844;28;20096;-79
2024/01/15 11:23:59;;;;;;;4.70;2.75;;;;;;;;;;5110406;28;20107;-79
2024/01/15 11:26:28;;;;;;;6.10;3.42;;;;;;;;;;5066017;28;20049;-78
2024/01/15 11:29:03;;;;;;;5.30;2.95;;;;;;;;;;5110692;28;20059;-80
2024/01/15 11:31:41;;;;;;;5.35;2.70;;;;;;;;;;5117366;28;20072;-79
2024/01/15 11:34:08;;;;;;;5.70;2.90;;;;;;;;;;5095319;28;20024;-77
2024/01/15 11:36:46;;;;;;;5.40;3.05;;;;;;;;;;5109347;28;20031;-80
2024/01/15 11:39:27;;;;;;;5.95;2.65;;;;;;;;;;5107555;28;20105;-80
2024/01/15 11:42:01;;;;;;;4.53;2.72;;;;;;;;;;5083243;28;20024;-80
2024/01/15 11:44:27;;;;;;;5.43;2.30;;;;;;;;;;5102427;28;20323;-79
2024/01/15 11:46:53;;;;;;;6.45;2.70;;;;;;;;;;5125290;28;20032;-79
2024/01/15 11:49:29;;;;;;;4.85;2.65;;;;;;;;;;5107556;28;20024;-79
2024/01/15 11:51:56;;;;;;;9.57;2.70;;;;;;;;;;5107519;28;20032;-79
2024/01/15 11:54:23;;;;;;;3.72;2.10;;;;;;;;;;5107597;28;20020;-78
2024/01/15 11:56:49;;;;;;;4.45;2.08;;;;;;;;;;5100895;28;20060;-78
2024/01/15 11:59:16;;;;;;;7.18;2.72;;;;;;;;;;5112696;28;20031;-79
2024/01/15 12:01:42;;;;;;;5.70;2.65;;;;;;;;;;5104375;28;20067;-79
2024/01/15 12:04:09;;;;;;;4.57;2.20;;;;;;;;;;5106319;28;20020;-80
2024/01/15 12:06:35;;;;;;;4.97;2.45;;;;;;;;;;5108905;28;20098;-79
2024/01/15 12:09:11;;;;;;;4.70;2.83;;;;;;;;;;5108026;28;20031;-80
2024/01/15 12:11:39;;;;;;;6.30;2.42;;;;;;;;;;5102784;28;20031;-79
2024/01/15 12:14:06;;;;;;;4.97;2.40;;;;;;;;;;5102548;28;20049;-80
2024/01/15 12:16:32;;;;;;;4.53;2.45;;;;;;;;;;5125411;28;20055;-79
2024/01/15 12:18:58;;;;;;;3.47;1.98;;;;;;;;;;5116543;28;20039;-79
2024/01/15 12:21:27;;;;;;;3.78;1.90;;;;;;;;;;5123137;28;20068;-79
2024/01/15 12:23:54;;;;;;;5.18;2.08;;;;;;;;;;5123662;28;20016;-78
2024/01/15 12:26:20;;;;;;;4.82;2.78;;;;;;;;;;5101749;28;20023;-78
2024/01/15 12:28:46;;;;;;;2.58;1.80;;;;;;;;;;5119584;28;20035;-79
2024/01/15 12:31:13;;;;;;;5.30;2.17;;;;;;;;;;5109480;28;20020;-80
2024/01/15 12:33:40;;;;;;;5.30;2.50;;;;;;;;;;5109611;28;20024;-79
2024/01/15 12:36:06;;;;;;;3.22;2.20;;;;;;;;;;5113302;28;20024;-81
2024/01/15 12:38:32;;;;;;;3.10;1.52;;;;;;;;;;5120101;28;20012;-78
2024/01/15 12:41:00;;;;;;;2.40;1.60;;;;;;;;;;5120424;28;20020;-80
2024/01/15 12:43:27;;;;;;;3.95;1.60;;;;;;;;;;5134056;28;20033;-79
2024/01/15 12:46:00;;;;;;;4.07;1.75;;;;;;;;;;5141236;28;20026;-78
2024/01/15 12:48:26;;;;;;;2.50;1.77;;;;;;;;;;5136097;28;20054;-79
2024/01/15 12:50:53;;;;;;;3.38;1.88;;;;;;;;;;5120129;28;20021;-77
2024/01/15 12:53:20;;;;;;;4.00;2.03;;;;;;;;;;5120151;28;20027;-78
2024/01/15 12:55:46;;;;;;;4.32;1.52;;;;;;;;;;5102896;28;20034;-78
2024/01/15 12:58:13;;;;;;;3.45;1.85;;;;;;;;;;5103202;28;20032;-77
2024/01/15 13:00:40;;;;;;;2.35;1.52;;;;;;;;;;5103702;28;20016;-78
2024/01/15 13:03:07;;;;;;;3.45;1.85;;;;;;;;;;5103287;28;20016;-78
2024/01/15 13:05:34;;;;;;;10.65;2.03;;;;;;;;;;5120834;28;20027;-76
2024/01/15 13:08:00;;;;;;;3.13;1.95;;;;;;;;;;5103322;28;20051;-77
2024/01/15 13:10:29;;;;;;;2.40;1.38;;;;;;;;;;5120627;28;20036;-76
2024/01/15 13:12:55;;;;;;;2.05;1.38;;;;;;;;;;5100036;28;20051;-78
2024/01/15 13:15:22;;;;;;;4.88;2.15;;;;;;;;;;5120502;28;20124;-77
2024/01/15 13:17:49;;;;;;;3.53;1.80;;;;;;;;;;5120342;28;20004;-79
2024/01/15 13:20:15;;;;;;;3.40;2.10;;;;;;;;;;5120639;28;20012;-76
2024/01/15 13:22:44;;;;;;;3.50;1.98;;;;;;;;;;5118828;28;20079;-76
2024/01/15 13:25:11;;;;;;;2.47;1.80;;;;;;;;;;5101160;28;20035;-79
2024/01/15 13:27:37;;;;;;;4.18;2.00;;;;;;;;;;5119568;28;20020;-79
2024/01/15 13:30:04;;;;;;;2.63;1.80;;;;;;;;;;5120093;28;20040;-78
2024/01/15 13:32:30;;;;;;;6.22;2.28;;;;;;;;;;5119793;28;20070;-79
2024/01/15 13:34:57;;;;;;;3.03;2.10;;;;;;;;;;5120544;28;20008;-79
2024/01/15 13:37:24;;;;;;;2.17;1.83;;;;;;;;;;5102828;28;20045;-77
2024/01/15 13:39:52;;;;;;;4.15;2.33;;;;;;;;;;5119494;28;20058;-79
2024/01/15 13:42:18;;;;;;;3.60;2.00;;;;;;;;;;5119795;28;20012;-77
2024/01/15 13:44:46;;;;;;;4.85;2.22;;;;;;;;;;5120031;28;20028;-78
2024/01/15 13:47:12;;;;;;;5.78;2.47;;;;;;;;;;5119789;28;20023;-79
2024/01/15 13:49:39;;;;;;;2.92;1.73;;;;;;;;;;5119109;28;20114;-78
2024/01/15 13:52:05;;;;;;;3.83;2.17;;;;;;;;;;5102301;28;20008;-77
2024/01/15 13:54:31;;;;;;;5.50;2.63;;;;;;;;;;5119920;28;20047;-78
2024/01/15 13:56:59;;;;;;;5.60;2.40;;;;;;;;;;5119699;28;20024;-79
2024/01/15 13:59:25;;;;;;;4.72;2.70;;;;;;;;;;5102225;28;20062;-79
2024/01/15 14:01:51;;;;;;;8.35;3.00;;;;;;;;;;5119565;28;20036;-77
2024/01/15 14:04:18;;;;;;;4.68;2.05;;;;;;;;;;5119244;28;20032;-78
2024/01/15 14:06:45;;;;;;;6.40;1.92;;;;;;;;;;5119201;28;20032;-79
2024/01/15 14:09:14;;;;;;;4.72;2.30;;;;;;;;;;5101746;28;20027;-78
2024/01/15 14:11:40;;;;;;;3.70;1.85;;;;;;;;;;5101898;28;20012;-77
2024/01/15 14:14:08;;;;;;;7.22;2.55;;;;;;;;;;5119332;28;20043;-78
2024/01/15 14:16:34;;;;;;;4.70;2.80;;;;;;;;;;5118931;28;20072;-78
2024/01/15 14:19:02;;;;;;;6.30;3.30;;;;;;;;;;5127875;28;20012;-78
2024/01/15 14:21:28;;;;;;;4.35;2.55;;;;;;;;;;5125210;28;20038;-79
2024/01/15 14:23:54;;;;;;;3.22;2.17;;;;;;;;;;5118423;28;20034;-78
2024/01/15 14:26:20;;;;;;;5.07;2.50;;;;;;;;;;5108846;28;20099;-77
2024/01/15 14:28:48;;;;;;;4.40;2.50;;;;;;;;;;5129519;28;20030;-78
2024/01/15 14:31:14;;;;;;;5.22;2.20;;;;;;;;;;5121162;28;20036;-78
2024/01/15 14:33:40;;;;;;;3.65;2.38;;;;;;;;;;5122602;28;20028;-79
2024/01/15 14:36:06;;;;;;;4.60;2.38;;;;;;;;;;5113301;28;20032;-78